Time;durP1;ratioP1;P1;durP2;ratioP2;P2;SDS_P1;SDS_P2;PMS_P1;PMS_P2;Temp;Humidity;BMP_temperature;BMP_pressure;BME280_temperature;BME280_humidity;BME280_pressure;Samples;Min_cycle;Max_cycle;Signal;HPM_P1;HPM_P2
2021/06/29 00:29:43;;;;;;;1.67;1.38;;;;;;;17.01;76.12;93367.41;5034478;28;20080;-85
2021/06/29 00:32:09;;;;;;;1.85;1.17;;;;;;;16.96;76.19;93351.78;5034503;28;20459;-85
2021/06/29 00:34:36;;;;;;;2.80;2.30;;;;;;;17.04;76.47;93366.16;5034147;28;20409;-85
2021/06/29 00:37:03;;;;;;;2.83;1.58;;;;;;;17.03;76.66;93362.00;5034257;28;20049;-84
2021/06/29 00:39:30;;;;;;;2.00;1.27;;;;;;;17.02;76.49;93357.78;5050084;28;20416;-85
2021/06/29 00:41:57;;;;;;;2.00;1.13;;;;;;;17.06;76.26;93362.31;5053952;28;20116;-85
2021/06/29 00:44:25;;;;;;;2.35;1.70;;;;;;;17.07;76.26;93363.06;5053797;28;20393;-85
2021/06/29 00:46:54;;;;;;;0.95;0.70;;;;;;;17.03;75.83;93354.22;5053847;28;20489;-85
2021/06/29 00:49:21;;;;;;;1.95;1.08;;;;;;;17.04;76.68;93355.78;5054001;28;20049;-85
2021/06/29 00:51:48;;;;;;;2.70;1.02;;;;;;;16.98;76.73;93354.91;5053918;28;20056;-85
2021/06/29 00:54:15;;;;;;;2.72;1.73;;;;;;;16.94;76.37;93357.22;5053790;28;20560;-85
2021/06/29 00:56:44;;;;;;;1.90;1.30;;;;;;;16.94;75.79;93361.66;5053511;28;20125;-85
2021/06/29 00:59:10;;;;;;;1.52;0.85;;;;;;;16.90;76.00;93366.50;5053604;28;20053;-84
2021/06/29 01:01:37;;;;;;;1.58;1.00;;;;;;;16.86;76.67;93362.06;5053681;28;20095;-85
2021/06/29 01:04:07;;;;;;;1.42;0.98;;;;;;;16.75;76.83;93354.19;5053741;28;20053;-85
2021/06/29 01:06:34;;;;;;;2.55;1.50;;;;;;;16.76;77.22;93358.34;5053560;28;20455;-85
2021/06/29 01:09:01;;;;;;;2.33;1.27;;;;;;;16.77;78.13;93367.72;5052972;28;20489;-85
2021/06/29 01:11:29;;;;;;;1.73;0.90;;;;;;;16.74;78.94;93367.38;5053362;28;20057;-85
2021/06/29 01:13:55;;;;;;;2.90;1.55;;;;;;;16.74;79.81;93363.00;5053337;28;20451;-84
2021/06/29 01:16:22;;;;;;;2.13;1.52;;;;;;;16.74;80.88;93359.59;5053757;28;21127;-84
2021/06/29 01:18:49;;;;;;;1.52;1.02;;;;;;;16.75;82.22;93364.56;5053237;28;20049;-85
2021/06/29 01:21:19;;;;;;;1.63;1.13;;;;;;;16.74;82.33;93370.78;5053281;28;20041;-84
2021/06/29 01:23:50;;;;;;;2.65;1.45;;;;;;;16.73;81.08;93363.22;5053093;28;20089;-84
2021/06/29 01:26:21;;;;;;;1.63;1.38;;;;;;;16.66;81.18;93361.63;5053322;28;20060;-84
2021/06/29 01:28:55;;;;;;;3.97;1.48;;;;;;;16.61;81.56;93364.16;5053000;28;20041;-84
2021/06/29 01:31:23;;;;;;;1.65;1.30;;;;;;;16.58;80.87;93367.25;5051678;28;20053;-85
2021/06/29 01:33:50;;;;;;;1.88;1.17;;;;;;;16.60;80.96;93366.97;5053066;28;20045;-85
2021/06/29 01:36:23;;;;;;;1.90;1.27;;;;;;;16.53;81.51;93362.00;5052870;28;20041;-84
2021/06/29 01:38:51;;;;;;;2.25;1.15;;;;;;;16.49;81.27;93366.91;5053107;28;20507;-84
2021/06/29 01:41:21;;;;;;;2.58;1.05;;;;;;;16.41;81.31;93360.31;5052853;28;20633;-84
2021/06/29 01:43:51;;;;;;;2.20;1.08;;;;;;;16.35;81.24;93361.28;5052706;28;20140;-84
2021/06/29 01:46:18;;;;;;;1.80;1.40;;;;;;;16.28;81.05;93358.09;5052793;28;20084;-84
2021/06/29 01:48:46;;;;;;;1.85;0.88;;;;;;;16.30;80.91;93364.59;5052645;28;20053;-85
2021/06/29 01:51:14;;;;;;;2.13;1.35;;;;;;;16.26;81.17;93362.72;5052884;28;20048;-85
2021/06/29 01:53:43;;;;;;;1.75;1.08;;;;;;;16.21;81.79;93363.47;5052818;28;20122;-84
2021/06/29 01:56:15;;;;;;;4.15;1.88;;;;;;;16.16;81.74;93368.59;5052710;28;20071;-85
2021/06/29 01:58:42;;;;;;;2.58;1.77;;;;;;;16.16;81.64;93368.59;5052647;28;20044;-85
2021/06/29 02:01:09;;;;;;;1.58;1.27;;;;;;;16.16;81.41;93360.81;5052399;28;20387;-85
2021/06/29 02:03:36;;;;;;;2.35;1.15;;;;;;;16.12;81.50;93357.13;5052707;28;20451;-85
2021/06/29 02:06:03;;;;;;;1.67;1.10;;;;;;;16.08;82.16;93362.00;5052449;28;20041;-85
2021/06/29 02:08:30;;;;;;;1.23;0.90;;;;;;;16.09;81.74;93360.97;5052399;28;20049;-85
2021/06/29 02:10:58;;;;;;;1.77;1.20;;;;;;;16.07;82.06;93363.03;5052286;28;20064;-84
2021/06/29 02:13:25;;;;;;;2.67;1.25;;;;;;;16.04;82.17;93366.09;5052378;28;20053;-85
2021/06/29 02:15:52;;;;;;;2.75;1.77;;;;;;;15.94;82.85;93350.41;5052102;28;20390;-84
2021/06/29 02:18:19;;;;;;;1.95;1.20;;;;;;;15.95;83.35;93357.16;5052427;28;20053;-84
2021/06/29 02:20:46;;;;;;;2.45;1.33;;;;;;;15.96;83.40;93362.09;5052336;28;20099;-85
2021/06/29 02:23:12;;;;;;;1.90;1.45;;;;;;;15.98;83.60;93362.63;5052303;28;20048;-84
2021/06/29 02:25:39;;;;;;;2.42;1.75;;;;;;;15.80;83.64;93340.38;5052075;28;20057;-85
2021/06/29 02:28:07;;;;;;;3.03;1.63;;;;;;;15.93;84.27;93348.84;5052108;28;20045;-85
2021/06/29 02:30:34;;;;;;;1.95;1.52;;;;;;;15.95;84.07;93362.34;5044606;28;20046;-85
2021/06/29 02:33:01;;;;;;;1.85;1.08;;;;;;;15.96;83.71;93356.16;5032079;28;20095;-85
2021/06/29 02:35:29;;;;;;;2.65;1.20;;;;;;;15.89;84.14;93353.69;5031799;28;20046;-85
2021/06/29 02:37:56;;;;;;;4.38;1.38;;;;;;;15.86;84.24;93354.16;5031953;28;20058;-85
2021/06/29 02:40:23;;;;;;;2.97;1.02;;;;;;;15.88;84.23;93352.91;5031809;28;20056;-85
2021/06/29 02:42:50;;;;;;;2.05;1.27;;;;;;;15.77;83.74;93346.81;5031422;28;20045;-85
2021/06/29 02:45:19;;;;;;;3.47;0.90;;;;;;;15.85;83.35;93353.41;5031568;28;20135;-85
2021/06/29 02:47:47;;;;;;;1.23;0.93;;;;;;;15.90;82.83;93357.84;5029967;28;20132;-85
2021/06/29 02:50:15;;;;;;;1.48;1.02;;;;;;;15.80;83.11;93352.53;5044654;28;20094;-85
2021/06/29 02:52:42;;;;;;;1.85;1.13;;;;;;;15.83;83.42;93358.00;5051623;28;20052;-84
2021/06/29 02:55:11;;;;;;;2.05;1.20;;;;;;;15.80;83.21;93345.56;5051422;28;20489;-85
2021/06/29 02:57:38;;;;;;;2.00;1.45;;;;;;;15.75;83.86;93350.66;5051311;28;20048;-84
2021/06/29 03:00:07;;;;;;;2.00;1.00;;;;;;;15.74;84.17;93352.44;5051683;28;20055;-84
2021/06/29 03:02:36;;;;;;;1.77;1.02;;;;;;;15.71;85.05;93357.31;5051722;28;20053;-84
2021/06/29 03:05:04;;;;;;;2.30;1.10;;;;;;;15.69;85.16;93354.19;5051260;28;20489;-84
2021/06/29 03:07:31;;;;;;;2.58;1.55;;;;;;;15.66;85.52;93355.47;5051550;28;20048;-85
2021/06/29 03:09:57;;;;;;;1.75;1.27;;;;;;;15.68;85.18;93350.03;5051122;28;20390;-85
2021/06/29 03:12:24;;;;;;;1.77;1.10;;;;;;;15.68;84.82;93344.84;5051139;28;20406;-85
2021/06/29 03:14:55;;;;;;;1.92;1.30;;;;;;;15.77;84.36;93348.59;5051101;28;20073;-85
2021/06/29 03:17:22;;;;;;;3.30;2.15;;;;;;;15.77;84.33;93353.78;5051185;28;20045;-85
2021/06/29 03:19:50;;;;;;;4.07;1.80;;;;;;;15.83;84.14;93358.00;5051056;28;20049;-84
2021/06/29 03:22:17;;;;;;;3.45;1.95;;;;;;;15.82;84.27;93355.66;5051033;28;20040;-85
2021/06/29 03:24:44;;;;;;;8.10;2.38;;;;;;;15.82;84.18;93359.03;5050643;28;20049;-85
2021/06/29 03:27:10;;;;;;;2.38;1.05;;;;;;;15.84;83.91;93361.41;5051182;28;20053;-85
2021/06/29 03:29:38;;;;;;;2.67;1.55;;;;;;;15.82;84.07;93366.81;5051082;28;20064;-85
2021/06/29 03:32:23;;;;;;;2.72;1.80;;;;;;;15.80;84.48;93360.28;5031055;28;20579;-85
2021/06/29 03:34:51;;;;;;;3.58;1.75;;;;;;;15.83;84.91;93362.44;5031049;28;20188;-85
2021/06/29 03:37:18;;;;;;;3.05;1.70;;;;;;;15.86;84.75;93364.53;5030734;28;20045;-86
2021/06/29 03:39:45;;;;;;;2.13;1.50;;;;;;;15.89;84.33;93358.88;5030950;28;20056;-85
2021/06/29 03:42:12;;;;;;;3.20;1.67;;;;;;;15.97;84.15;93368.06;5030947;28;20061;-85
2021/06/29 03:44:39;;;;;;;17.75;3.20;;;;;;;16.02;84.07;93368.16;5030726;28;20077;-85
2021/06/29 03:47:05;;;;;;;2.13;1.48;;;;;;;16.09;83.79;93373.13;5030951;28;20049;-85
2021/06/29 03:49:32;;;;;;;2.58;1.35;;;;;;;16.12;83.98;93367.50;5030708;28;20049;-85
2021/06/29 03:52:01;;;;;;;2.85;1.17;;;;;;;16.16;83.63;93368.59;5030550;28;20045;-86
2021/06/29 03:54:28;;;;;;;2.83;1.17;;;;;;;16.25;83.47;93374.13;5030106;28;20442;-84
2021/06/29 03:56:55;;;;;;;3.00;1.58;;;;;;;16.35;83.37;93370.88;5030981;28;20099;-84
2021/06/29 03:59:21;;;;;;;4.53;2.15;;;;;;;16.42;82.96;93371.47;5043857;28;20535;-85
2021/06/29 04:01:48;;;;;;;4.25;2.15;;;;;;;16.55;82.65;93384.06;5050520;28;20477;-85
2021/06/29 04:04:15;;;;;;;2.08;1.33;;;;;;;16.62;82.01;93373.50;5050372;28;20423;-85
2021/06/29 04:06:41;;;;;;;4.88;1.90;;;;;;;16.74;81.98;93378.56;5050666;28;20049;-85
2021/06/29 04:09:10;;;;;;;9.52;2.17;;;;;;;16.80;81.70;93371.63;5050624;28;20045;-84
2021/06/29 04:11:37;;;;;;;2.40;1.75;;;;;;;16.91;80.84;93380.28;5049796;28;20098;-84
2021/06/29 04:14:05;;;;;;;2.55;2.13;;;;;;;16.93;80.69;93386.00;5035074;28;20041;-84
2021/06/29 04:16:32;;;;;;;2.47;1.25;;;;;;;16.99;80.36;93379.06;5030437;28;20045;-86
2021/06/29 04:18:59;;;;;;;3.30;1.38;;;;;;;17.07;80.01;93382.03;5030319;28;20551;-85
2021/06/29 04:21:26;;;;;;;9.10;2.00;;;;;;;17.13;80.03;93380.25;5030625;28;20056;-85
2021/06/29 04:23:53;;;;;;;2.95;1.63;;;;;;;17.22;80.23;93385.81;5030503;28;20046;-86
2021/06/29 04:26:21;;;;;;;2.72;1.00;;;;;;;17.26;79.44;93379.06;5030535;28;20107;-86
2021/06/29 04:28:49;;;;;;;3.25;2.35;;;;;;;17.32;79.19;93369.50;5030428;28;20140;-85
2021/06/29 04:31:17;;;;;;;2.85;1.45;;;;;;;17.43;79.26;93375.56;5030250;28;20049;-85
2021/06/29 04:33:44;;;;;;;1.60;1.48;;;;;;;17.48;77.98;93367.81;5030352;28;20053;-85
2021/06/29 04:36:11;;;;;;;3.08;1.52;;;;;;;17.62;78.24;93379.34;5030304;28;20104;-86
2021/06/29 04:38:38;;;;;;;5.18;1.80;;;;;;;17.73;78.17;93374.22;5030282;28;20513;-86
2021/06/29 04:41:05;;;;;;;2.25;1.80;;;;;;;17.82;77.96;93374.53;5030226;28;20058;-85
2021/06/29 04:43:36;;;;;;;12.50;2.25;;;;;;;17.85;77.47;93367.03;5030302;28;20049;-86
2021/06/29 04:46:03;;;;;;;2.53;1.83;;;;;;;17.98;76.76;93373.59;5030020;28;20050;-85
2021/06/29 04:48:30;;;;;;;7.32;2.63;;;;;;;18.07;75.87;93371.34;5030189;28;20046;-85
2021/06/29 04:50:57;;;;;;;4.78;3.13;;;;;;;18.13;76.63;93369.53;5030312;28;20045;-86
2021/06/29 04:53:23;;;;;;;5.20;2.65;;;;;;;18.17;75.74;93349.81;5030260;28;20054;-85
2021/06/29 04:55:50;;;;;;;2.53;2.33;;;;;;;18.36;76.29;93375.34;5030191;28;20042;-85
2021/06/29 04:58:17;;;;;;;5.03;2.67;;;;;;;18.46;75.21;93377.22;5030127;28;20053;-86
2021/06/29 05:00:45;;;;;;;3.78;2.55;;;;;;;18.58;74.97;93375.19;5029962;28;20050;-86
2021/06/29 05:03:13;;;;;;;3.58;1.80;;;;;;;18.49;74.68;93348.09;5030216;28;20099;-86
2021/06/29 05:05:40;;;;;;;3.85;2.08;;;;;;;18.72;74.69;93374.69;5032413;28;20049;-86
2021/06/29 05:08:07;;;;;;;5.32;2.45;;;;;;;18.87;73.61;93376.53;5033701;28;20061;-86
2021/06/29 05:10:34;;;;;;;3.53;2.22;;;;;;;18.79;74.87;93346.63;5033533;28;20489;-86
2021/06/29 05:13:01;;;;;;;4.65;1.90;;;;;;;19.21;74.04;93381.34;5033458;28;20060;-85
2021/06/29 05:15:28;;;;;;;2.90;2.17;;;;;;;19.18;75.41;93377.44;5033695;28;20049;-86
2021/06/29 05:17:56;;;;;;;6.38;2.47;;;;;;;19.29;74.11;93378.22;5033388;28;20489;-86
2021/06/29 05:20:23;;;;;;;7.57;3.05;;;;;;;19.27;74.59;93363.88;5033373;28;20052;-87
2021/06/29 05:22:50;;;;;;;7.38;2.78;;;;;;;19.40;73.05;93373.78;5033399;28;20060;-86
2021/06/29 05:25:17;;;;;;;5.97;3.72;;;;;;;19.48;72.61;93373.25;5032992;28;20525;-87
2021/06/29 05:27:44;;;;;;;5.28;2.30;;;;;;;19.60;73.07;93372.22;5033061;28;20049;-87
2021/06/29 05:30:11;;;;;;;4.57;3.05;;;;;;;19.58;73.13;93372.47;5033258;28;20057;-85
2021/06/29 05:32:38;;;;;;;4.78;2.85;;;;;;;19.89;72.19;93369.84;5033072;28;20508;-86
2021/06/29 05:35:08;;;;;;;6.53;4.35;;;;;;;20.15;71.89;93358.59;5033223;28;20417;-86
2021/06/29 05:37:35;;;;;;;7.97;3.45;;;;;;;20.42;71.08;93363.44;5033174;28;20049;-86
2021/06/29 05:40:02;;;;;;;6.15;4.35;;;;;;;20.32;70.64;93352.28;5032819;28;20493;-87
2021/06/29 05:42:28;;;;;;;8.60;4.65;;;;;;;20.69;68.97;93362.28;5033111;28;20045;-87
2021/06/29 05:44:55;;;;;;;7.85;3.92;;;;;;;20.79;67.17;93361.44;5032978;28;20111;-86
2021/06/29 05:47:22;;;;;;;8.45;3.47;;;;;;;21.09;66.60;93362.34;5032870;28;20045;-86
2021/06/29 05:49:50;;;;;;;7.53;3.45;;;;;;;21.31;66.21;93360.34;5032954;28;20433;-85
2021/06/29 05:52:18;;;;;;;9.90;4.13;;;;;;;21.63;65.05;93369.50;5032760;28;20413;-86
2021/06/29 05:54:45;;;;;;;5.07;4.03;;;;;;;21.80;63.98;93368.34;5032658;28;20435;-86
2021/06/29 05:57:13;;;;;;;7.93;3.47;;;;;;;22.16;62.60;93367.97;5032936;28;20133;-87
2021/06/29 05:59:40;;;;;;;6.68;3.38;;;;;;;22.33;61.08;93362.31;5032602;28;20049;-86
2021/06/29 06:02:08;;;;;;;5.63;2.97;;;;;;;22.59;60.75;93362.00;5032752;28;20444;-86
2021/06/29 06:04:35;;;;;;;5.63;2.97;;;;;;;22.77;59.44;93360.47;5032584;28;20050;-86
2021/06/29 06:07:02;;;;;;;6.10;3.10;;;;;;;22.85;58.03;93360.94;5032295;28;20103;-87
2021/06/29 06:09:30;;;;;;;4.82;2.83;;;;;;;23.14;57.34;93349.50;5032881;28;20049;-86
2021/06/29 06:11:57;;;;;;;4.22;2.63;;;;;;;23.49;52.13;93363.16;5032606;28;20052;-85
2021/06/29 06:14:24;;;;;;;3.78;2.28;;;;;;;23.80;54.34;93362.66;5032518;28;20049;-85
2021/06/29 06:16:51;;;;;;;4.25;2.58;;;;;;;24.13;54.31;93360.00;5031581;28;20441;-86
2021/06/29 06:19:18;;;;;;;9.38;2.65;;;;;;;24.21;51.65;93358.50;5032378;28;20119;-87
2021/06/29 06:21:45;;;;;;;4.15;2.40;;;;;;;24.45;51.58;93356.75;5032154;28;20049;-87
2021/06/29 06:24:11;;;;;;;5.80;2.65;;;;;;;24.52;51.71;93350.03;5032105;28;20046;-86
2021/06/29 06:26:40;;;;;;;6.72;3.47;;;;;;;24.61;51.57;93359.84;5032130;28;20061;-87
2021/06/29 06:29:07;;;;;;;6.72;2.85;;;;;;;24.80;52.55;93349.19;5032157;28;20057;-86
2021/06/29 06:31:34;;;;;;;11.32;5.43;;;;;;;25.15;51.31;93354.00;5032169;28;20091;-87
2021/06/29 06:34:01;;;;;;;16.63;6.78;;;;;;;25.63;51.12;93352.63;5032012;28;20060;-86
2021/06/29 06:36:27;;;;;;;10.00;4.60;;;;;;;26.05;50.21;93357.63;5031831;28;20056;-86
2021/06/29 06:38:56;;;;;;;5.20;3.60;;;;;;;25.71;50.12;93354.56;5031948;28;20049;-86
2021/06/29 06:41:23;;;;;;;7.43;3.47;;;;;;;25.79;48.83;93345.16;5031885;28;20409;-87
2021/06/29 06:43:51;;;;;;;11.00;4.45;;;;;;;26.24;48.83;93361.94;5031817;28;20104;-87
2021/06/29 06:46:18;;;;;;;7.10;2.50;;;;;;;26.65;48.04;93344.19;5031655;28;20053;-86
2021/06/29 06:48:45;;;;;;;6.47;4.05;;;;;;;26.94;47.76;93348.91;5031689;28;20045;-87
2021/06/29 06:51:12;;;;;;;5.72;2.92;;;;;;;27.32;46.92;93336.19;5031573;28;20053;-87
2021/06/29 06:53:38;;;;;;;5.40;3.33;;;;;;;27.02;45.89;93336.06;5031637;28;20049;-88
2021/06/29 06:56:05;;;;;;;3.85;2.25;;;;;;;27.40;45.54;93345.94;5031545;28;20057;-87
2021/06/29 06:58:32;;;;;;;5.28;1.83;;;;;;;27.57;46.24;93342.50;5031865;28;20056;-89
2021/06/29 07:01:00;;;;;;;4.70;2.28;;;;;;;27.50;45.36;93344.06;5031447;28;20053;-87
2021/06/29 07:03:27;;;;;;;2.92;1.90;;;;;;;27.58;45.16;93351.19;5031399;28;20057;-86
2021/06/29 07:05:54;;;;;;;4.03;2.63;;;;;;;28.01;45.05;93331.06;5031575;28;20050;-86
2021/06/29 07:08:20;;;;;;;2.67;1.98;;;;;;;28.69;44.21;93340.06;5031366;28;20049;-87
2021/06/29 07:10:47;;;;;;;12.52;2.97;;;;;;;29.01;42.24;93345.00;5031278;28;20098;-87
2021/06/29 07:13:14;;;;;;;4.70;2.67;;;;;;;29.19;42.87;93337.69;5031290;28;20041;-86
2021/06/29 07:15:41;;;;;;;2.80;1.90;;;;;;;29.59;42.95;93329.28;5031174;28;20056;-87
2021/06/29 07:18:14;;;;;;;3.97;2.10;;;;;;;29.95;42.23;93326.22;5031045;28;20049;-87
2021/06/29 07:20:41;;;;;;;16.35;2.95;;;;;;;30.31;41.05;93329.25;5031159;28;20632;-84
2021/06/29 07:23:08;;;;;;;4.25;2.60;;;;;;;30.54;40.23;93326.88;5031294;28;20073;-87
2021/06/29 07:25:35;;;;;;;3.60;2.13;;;;;;;30.81;39.02;93335.25;5030926;28;20057;-86
2021/06/29 07:28:02;;;;;;;5.38;2.60;;;;;;;30.95;39.97;93339.44;5031134;28;20409;-85
2021/06/29 07:30:29;;;;;;;4.28;2.45;;;;;;;31.07;39.49;93329.56;5031017;28;20445;-82
2021/06/29 07:32:58;;;;;;;3.78;1.80;;;;;;;31.32;39.96;93334.81;5031170;28;20524;-83
2021/06/29 07:35:28;;;;;;;3.08;1.83;;;;;;;31.32;39.96;93334.81;5031213;28;20151;-84
2021/06/29 07:37:55;;;;;;;2.30;1.40;;;;;;;31.85;38.70;93338.44;5044364;28;20119;-82
2021/06/29 07:40:21;;;;;;;5.05;2.28;;;;;;;-147.90;100.00;59510.75;5051342;28;20387;-85
2021/06/29 07:42:48;;;;;;;3.05;2.17;;;;;;;32.31;38.29;93332.69;5050834;28;20045;-85
2021/06/29 07:45:15;;;;;;;3.10;2.22;;;;;;;32.52;38.09;93326.31;5050620;28;20091;-86
2021/06/29 07:47:42;;;;;;;2.97;2.00;;;;;;;32.69;37.40;93319.06;5050963;28;20102;-88
2021/06/29 07:50:10;;;;;;;3.42;2.60;;;;;;;32.68;37.86;93320.19;5050789;28;20053;-84
2021/06/29 07:52:39;;;;;;;2.20;1.42;;;;;;;32.71;37.56;93317.59;5050732;28;20045;-84
2021/06/29 07:55:07;;;;;;;2.50;1.67;;;;;;;32.59;36.80;93301.75;5050686;28;20044;-85
2021/06/29 07:57:34;;;;;;;3.05;1.92;;;;;;;32.82;37.28;93315.16;5050520;28;20111;-86
2021/06/29 08:00:01;;;;;;;3.28;2.22;;;;;;;32.84;36.52;93312.91;5050822;28;20072;-85
2021/06/29 08:02:28;;;;;;;2.45;1.85;;;;;;;32.91;37.49;93320.28;5050560;28;20056;-85
2021/06/29 08:04:54;;;;;;;3.47;2.17;;;;;;;32.88;37.08;93318.31;5050142;28;20041;-86
2021/06/29 08:07:22;;;;;;;2.88;2.17;;;;;;;33.06;36.57;93310.72;5050565;28;20126;-87
2021/06/29 08:09:50;;;;;;;5.47;2.78;;;;;;;33.17;36.86;93311.69;5050614;28;20127;-84
2021/06/29 08:12:17;;;;;;;2.78;1.75;;;;;;;33.30;36.25;93314.97;5050468;28;20049;-84
2021/06/29 08:14:44;;;;;;;8.55;1.92;;;;;;;33.42;36.14;93311.38;5050483;28;20041;-86
2021/06/29 08:17:11;;;;;;;3.30;1.92;;;;;;;33.42;36.87;93308.72;5050305;28;20460;-86
2021/06/29 08:19:38;;;;;;;3.60;2.45;;;;;;;33.45;37.03;93301.91;5033024;28;20464;-86
2021/06/29 08:22:05;;;;;;;7.70;1.75;;;;;;;33.26;36.83;93303.47;5030665;28;20053;-83
2021/06/29 08:24:33;;;;;;;5.15;2.03;;;;;;;33.15;36.42;93300.63;5030423;28;20045;-86
2021/06/29 08:27:01;;;;;;;3.05;1.83;;;;;;;33.30;36.75;93300.88;5030601;28;20060;-84
2021/06/29 08:29:28;;;;;;;2.72;1.90;;;;;;;33.54;35.95;93299.03;5030612;28;20100;-83
2021/06/29 08:31:55;;;;;;;3.20;2.25;;;;;;;33.64;35.24;93295.03;5030302;28;20449;-85
2021/06/29 08:34:22;;;;;;;3.53;2.42;;;;;;;33.89;35.58;93292.78;5030437;28;20053;-83
2021/06/29 08:36:48;;;;;;;2.95;2.35;;;;;;;34.04;35.35;93301.78;5030418;28;20050;-84
2021/06/29 08:39:15;;;;;;;6.00;2.30;;;;;;;-147.90;100.00;59510.75;5030566;28;20049;-86
2021/06/29 08:41:43;;;;;;;2.53;1.77;;;;;;;-147.90;100.00;59510.75;5034096;28;20041;-85
2021/06/29 08:44:11;;;;;;;8.38;2.90;;;;;;;-147.90;100.00;59510.75;5034350;28;20057;-85
2021/06/29 08:46:38;;;;;;;3.67;2.33;;;;;;;-147.90;100.00;59510.75;5034076;28;20046;-82
2021/06/29 08:49:06;;;;;;;4.13;2.53;;;;;;;-147.90;100.00;59510.75;5033910;28;20057;-85
2021/06/29 08:51:33;;;;;;;19.50;1.77;;;;;;;-147.90;100.00;59510.75;5033931;28;20051;-86
2021/06/29 08:54:01;;;;;;;2.80;1.60;;;;;;;-147.90;100.00;59510.75;5033729;28;20049;-84
2021/06/29 08:56:30;;;;;;;3.85;1.90;;;;;;;-147.90;100.00;59510.75;5034046;28;20057;-87
2021/06/29 08:58:57;;;;;;;3.75;2.20;;;;;;;-147.90;100.00;59510.75;5033991;28;20067;-86
2021/06/29 09:01:27;;;;;;;2.78;1.67;;;;;;;-147.90;100.00;59510.75;5033712;28;20527;-86
2021/06/29 09:03:53;;;;;;;3.60;2.28;;;;;;;-147.90;100.00;59510.75;5033726;28;20055;-85
2021/06/29 09:06:30;;;;;;;2.85;1.85;;;;;;;-147.90;100.00;59510.75;5033507;28;20045;-85
2021/06/29 09:08:57;;;;;;;2.95;1.92;;;;;;;-147.90;100.00;59510.75;5033584;28;20056;-87
2021/06/29 09:11:24;;;;;;;5.22;1.25;;;;;;;-147.90;100.00;59510.75;5033751;28;20099;-87
2021/06/29 09:14:06;;;;;;;1.95;1.35;;;;;;;-147.90;100.00;59510.75;5033671;28;20140;-85
2021/06/29 09:16:35;;;;;;;3.60;1.17;;;;;;;-147.90;100.00;59510.75;5031736;28;20059;-85
2021/06/29 09:19:02;;;;;;;3.88;1.00;;;;;;;-147.90;100.00;59510.75;5033428;28;20473;-87
2021/06/29 09:21:35;;;;;;;2.92;1.83;;;;;;;-147.90;100.00;59510.75;5033541;28;20460;-83
2021/06/29 09:24:02;;;;;;;2.22;1.63;;;;;;;-147.90;100.00;59510.75;5033409;28;20544;-85
2021/06/29 09:26:29;;;;;;;2.53;1.40;;;;;;;-147.90;100.00;59510.75;5033544;28;20543;-88
2021/06/29 09:29:00;;;;;;;2.15;1.63;;;;;;;-147.90;100.00;59510.75;5033221;28;20056;-86
2021/06/29 09:31:29;;;;;;;2.50;1.75;;;;;;;-147.90;100.00;59510.75;5033105;28;20481;-86
2021/06/29 09:33:58;;;;;;;3.22;2.13;;;;;;;-147.90;100.00;59510.75;5033383;28;20056;-84
2021/06/29 09:36:27;;;;;;;2.90;1.52;;;;;;;-147.90;100.00;59510.75;5030523;28;20053;-86
2021/06/29 09:38:57;;;;;;;13.18;1.92;;;;;;;-147.90;100.00;59510.75;5033232;28;20045;-84
2021/06/29 09:41:28;;;;;;;2.67;1.52;;;;;;;36.08;29.47;93250.69;5033089;28;20046;-83
2021/06/29 09:43:56;;;;;;;4.60;1.55;;;;;;;36.34;29.18;93248.97;5032907;28;20081;-86
2021/06/29 09:46:26;;;;;;;2.33;1.58;;;;;;;36.34;28.80;93239.03;5032862;28;20049;-88
2021/06/29 09:48:56;;;;;;;2.50;1.77;;;;;;;36.47;28.75;93246.75;5033017;28;20042;-84
2021/06/29 09:51:27;;;;;;;2.58;2.05;;;;;;;36.55;28.51;93244.88;5031716;28;20041;-85
2021/06/29 09:53:56;;;;;;;2.15;1.23;;;;;;;36.59;28.46;93248.31;5032874;28;20100;-84
2021/06/29 09:56:25;;;;;;;3.75;2.42;;;;;;;36.55;28.01;93247.53;5032722;28;20192;-86
2021/06/29 09:58:54;;;;;;;2.92;2.00;;;;;;;36.64;28.66;93245.31;5033076;28;20131;-83
2021/06/29 10:01:22;;;;;;;3.40;2.10;;;;;;;36.73;27.93;93240.38;5032788;28;20111;-84
2021/06/29 10:03:52;;;;;;;3.03;1.90;;;;;;;36.97;27.98;93245.44;5032749;28;20050;-83
2021/06/29 10:06:20;;;;;;;3.00;2.33;;;;;;;37.02;28.39;93243.13;5032582;28;20073;-86
2021/06/29 10:08:50;;;;;;;2.78;1.77;;;;;;;37.03;27.62;93222.50;5032502;28;20084;-85
2021/06/29 10:11:20;;;;;;;2.58;1.88;;;;;;;37.22;26.25;93242.06;5032436;28;20597;-87
2021/06/29 10:13:50;;;;;;;3.33;1.88;;;;;;;37.33;27.86;93234.06;5032687;28;20100;-87
2021/06/29 10:16:21;;;;;;;2.15;1.50;;;;;;;37.42;28.07;93219.16;5032490;28;20052;-85
2021/06/29 10:19:02;;;;;;;3.38;1.92;;;;;;;37.56;27.52;93229.09;5032307;28;20096;-85
2021/06/29 10:21:32;;;;;;;14.80;2.38;;;;;;;37.67;27.88;93218.41;5032152;28;20092;-85
2021/06/29 10:24:02;;;;;;;2.10;1.33;;;;;;;37.79;26.82;93221.84;5032213;28;20481;-85
2021/06/29 10:26:31;;;;;;;2.63;1.77;;;;;;;37.64;26.81;93215.72;5032068;28;20152;-84
2021/06/29 10:28:59;;;;;;;2.47;1.65;;;;;;;37.77;27.01;93216.09;5032165;28;20099;-84
2021/06/29 10:31:28;;;;;;;3.30;1.83;;;;;;;37.30;27.68;93187.38;5032059;28;20045;-86
2021/06/29 10:33:57;;;;;;;2.83;1.60;;;;;;;37.72;27.73;93214.59;5032715;28;20060;-81
2021/06/29 10:36:26;;;;;;;3.22;2.00;;;;;;;37.73;27.14;93216.09;5038614;28;20049;-85
2021/06/29 10:38:55;;;;;;;3.10;1.77;;;;;;;37.92;26.58;93214.94;5031793;28;20053;-84
2021/06/29 10:41:25;;;;;;;3.75;1.73;;;;;;;38.03;27.25;93211.47;5042144;28;20045;-81
2021/06/29 10:43:54;;;;;;;1.75;1.10;;;;;;;38.02;27.30;93207.25;5034386;28;20438;-82
2021/06/29 10:46:40;;;;;;;3.33;2.17;;;;;;;37.87;26.85;93207.28;5037341;28;20043;-84
2021/06/29 10:49:31;;;;;;;4.47;2.63;;;;;;;38.08;26.56;93203.81;5050343;28;20048;-83
2021/06/29 10:52:00;;;;;;;2.85;1.83;;;;;;;38.15;27.22;93200.38;5051472;28;20044;-82
2021/06/29 10:54:46;;;;;;;3.78;2.33;;;;;;;38.26;26.23;93196.91;5051204;28;20049;-83
2021/06/29 10:57:17;;;;;;;4.35;2.22;;;;;;;38.37;25.62;93192.25;5037842;28;20140;-86
2021/06/29 10:59:48;;;;;;;4.93;1.73;;;;;;;38.28;26.89;93170.44;5035117;28;20045;-82
2021/06/29 11:02:17;;;;;;;3.28;1.88;;;;;;;38.54;26.17;93192.59;5041146;28;20047;-82
2021/06/29 11:04:54;;;;;;;4.38;2.47;;;;;;;38.41;26.74;93182.25;5041182;28;20041;-80
2021/06/29 11:07:45;;;;;;;2.63;1.60;;;;;;;38.31;26.54;93189.19;5038732;28;20057;-80
2021/06/29 11:10:15;;;;;;;3.08;1.92;;;;;;;38.30;26.08;93174.25;5041086;28;20509;-82
2021/06/29 11:12:52;;;;;;;2.85;1.85;;;;;;;38.50;25.81;93177.25;5039752;28;20485;-83
2021/06/29 11:15:20;;;;;;;2.00;1.45;;;;;;;38.62;25.39;93176.09;5040866;28;20045;-85
2021/06/29 11:17:56;;;;;;;5.38;2.67;;;;;;;38.35;25.91;93179.22;5038314;28;20059;-83
2021/06/29 11:20:25;;;;;;;4.55;1.60;;;;;;;38.47;26.89;93171.91;5037507;28;20041;-84
2021/06/29 11:22:55;;;;;;;6.60;2.30;;;;;;;38.22;26.32;93178.88;5040340;28;20502;-83
2021/06/29 11:25:53;;;;;;;3.85;1.77;;;;;;;38.45;25.42;93174.97;5031636;28;20083;-85
2021/06/29 11:28:26;;;;;;;2.92;1.70;;;;;;;38.14;24.76;93172.03;5001013;28;20057;-84
2021/06/29 11:31:03;;;;;;;3.83;2.38;;;;;;;38.10;26.86;93166.66;5044575;28;20503;-80
2021/06/29 11:33:46;;;;;;;3.47;1.85;;;;;;;38.13;26.17;93167.03;5036712;28;20106;-84
2021/06/29 11:36:50;;;;;;;4.95;2.45;;;;;;;37.73;26.91;93167.09;5038096;28;20132;-82
2021/06/29 11:39:30;;;;;;;3.67;1.60;;;;;;;37.38;27.00;93167.47;5039261;28;20520;-86
2021/06/29 11:41:57;;;;;;;5.07;2.05;;;;;;;37.42;26.92;93167.47;5047728;28;20488;-82
2021/06/29 11:44:46;;;;;;;4.35;2.25;;;;;;;37.21;26.56;93177.03;5050821;28;20476;-85
2021/06/29 11:47:15;;;;;;;3.58;1.60;;;;;;;37.13;26.08;93162.09;5050529;28;20061;-84
2021/06/29 11:49:45;;;;;;;3.60;2.63;;;;;;;36.61;28.08;93157.75;5050705;28;20095;-83
2021/06/29 11:52:25;;;;;;;2.90;2.10;;;;;;;37.14;27.65;93161.72;5049665;28;20397;-85
2021/06/29 11:54:54;;;;;;;4.38;2.20;;;;;;;37.46;27.82;93160.19;5048654;28;20522;-82
2021/06/29 11:57:23;;;;;;;2.92;1.88;;;;;;;37.76;27.23;93158.28;5050518;28;20053;-86
2021/06/29 11:59:53;;;;;;;4.68;2.60;;;;;;;37.65;27.85;93151.03;5050709;28;20110;-82
2021/06/29 12:02:22;;;;;;;4.80;2.10;;;;;;;37.83;27.24;93158.28;5050534;28;20059;-82
2021/06/29 12:05:01;;;;;;;3.20;1.85;;;;;;;37.86;26.16;93146.78;5050476;28;20052;-84
2021/06/29 12:07:37;;;;;;;2.40;1.88;;;;;;;38.12;27.24;93149.44;5050423;28;20049;-82